createdAt,value
2019-04-23T00:00:03.720Z,99260.13
2019-04-23T00:02:35.732Z,99250.77
2019-04-23T00:05:27.144Z,99257.77
2019-04-23T00:10:28.616Z,99257.58
2019-04-23T00:12:59.196Z,99243.95
2019-04-23T00:15:40.636Z,99249.34
2019-04-23T00:18:22.730Z,99235.64
2019-04-23T00:20:57.701Z,99242.16
2019-04-23T00:23:35.040Z,99230.70
2019-04-23T00:26:17.755Z,99239.98
2019-04-23T00:28:42.235Z,99232.53
2019-04-23T00:31:18.447Z,99232.03
2019-04-23T00:33:49.597Z,99222.57
2019-04-23T00:36:32.163Z,99222.86
2019-04-23T00:39:17.301Z,99215.55
2019-04-23T00:41:36.636Z,99217.94
2019-04-23T00:44:21.251Z,99214.61
2019-04-23T00:46:48.576Z,99216.13
2019-04-23T00:49:29.030Z,99210.91
2019-04-23T00:52:04.158Z,99210.28
2019-04-23T00:54:35.622Z,99203.97
2019-04-23T00:59:53.746Z,99208.63
2019-04-23T01:02:26.339Z,99208.92
2019-04-23T01:04:58.401Z,99197.92
2019-04-23T01:07:33.562Z,99214.55
2019-04-23T01:10:20.551Z,99199.34
2019-04-23T01:15:37.169Z,99193.58
2019-04-23T01:18:10.977Z,99196.00
2019-04-23T01:20:55.156Z,99194.45
2019-04-23T01:23:11.585Z,99196.20
2019-04-23T01:25:58.147Z,99190.16
2019-04-23T01:28:50.285Z,99183.59
2019-04-23T01:31:23.290Z,99188.00
2019-04-23T01:33:55.542Z,99171.54
2019-04-23T01:36:33.045Z,99180.39
2019-04-23T01:39:11.681Z,99179.23
2019-04-23T01:41:47.832Z,99174.91
2019-04-23T01:44:27.827Z,99168.45
2019-04-23T01:46:54.226Z,99172.67
2019-04-23T01:49:37.591Z,99174.30
2019-04-23T01:52:08.317Z,99172.38
2019-04-23T01:54:40.698Z,99171.86
2019-04-23T01:57:18.051Z,99167.39
2019-04-23T01:59:56.604Z,99172.31
2019-04-23T02:02:26.457Z,99172.73
2019-04-23T02:05:14.133Z,99174.00
2019-04-23T02:07:44.115Z,99167.54
2019-04-23T02:10:21.653Z,99161.23
2019-04-23T02:12:56.824Z,99163.08
2019-04-23T02:15:23.168Z,99167.28
2019-04-23T02:18:06.609Z,99160.28
2019-04-23T02:20:39.833Z,99161.95
2019-04-23T02:23:21.603Z,99153.02
2019-04-23T02:25:50.825Z,99149.34
2019-04-23T02:28:28.660Z,99148.79
2019-04-23T02:31:43.725Z,99143.00
2019-04-23T02:33:45.057Z,99148.11
2019-04-23T02:41:34.645Z,99140.20
2019-04-23T02:44:11.662Z,99141.58
2019-04-23T02:46:40.914Z,99150.00
2019-04-23T02:51:53.694Z,99147.40
2019-04-23T02:54:38.177Z,99137.30
2019-04-23T02:56:59.121Z,99140.03
2019-04-23T03:02:36.730Z,99130.34
2019-04-23T03:04:57.069Z,99143.14
2019-04-23T03:07:41.046Z,99146.73
2019-04-23T03:10:10.144Z,99145.66
2019-04-23T03:12:48.977Z,99150.44
2019-04-23T03:15:28.332Z,99140.69
2019-04-23T03:24:11.302Z,99138.72
2019-04-23T03:27:03.587Z,99133.27
2019-04-23T03:29:21.844Z,99130.50
2019-04-23T03:39:52.433Z,99125.19
2019-04-23T03:44:53.380Z,99124.48
2019-04-23T03:47:24.939Z,99124.95
2019-04-23T03:50:05.346Z,99120.55
2019-04-23T03:52:35.478Z,99118.46
2019-04-23T03:55:32.750Z,99117.25
2019-04-23T04:00:31.108Z,99122.02
2019-04-23T04:03:01.263Z,99120.40
2019-04-23T04:05:36.004Z,99124.38
2019-04-23T04:08:13.266Z,99119.34
2019-04-23T04:13:22.802Z,99128.23
2019-04-23T04:15:55.402Z,99123.72
2019-04-23T04:18:37.891Z,99125.98
2019-04-23T04:23:45.363Z,99123.03
2019-04-23T04:26:13.848Z,99123.09
2019-04-23T04:28:54.873Z,99122.89
2019-04-23T04:31:34.733Z,99114.00
2019-04-23T04:36:45.030Z,99114.98
2019-04-23T04:38:58.995Z,99113.81
2019-04-23T04:41:55.565Z,99108.17
2019-04-23T04:46:54.914Z,99103.59
2019-04-23T04:49:34.251Z,99099.72
2019-04-23T04:54:30.842Z,99086.41
2019-04-23T04:57:20.511Z,99079.14
2019-04-23T05:02:53.115Z,99082.91
2019-04-23T05:10:16.586Z,99066.22
2019-04-23T05:15:18.835Z,99067.82
2019-04-23T05:18:19.601Z,99072.98
2019-04-23T05:20:56.410Z,99071.11
2019-04-23T05:26:02.868Z,99064.20
2019-04-23T05:28:38.772Z,99060.93
2019-04-23T05:31:05.797Z,99063.27
2019-04-23T05:33:47.860Z,99062.25
2019-04-23T05:36:33.912Z,99056.76
2019-04-23T05:39:00.877Z,99061.70
2019-04-23T05:41:42.096Z,99060.20
2019-04-23T05:44:12.121Z,99045.41
2019-04-23T05:46:40.218Z,99055.59
2019-04-23T05:49:11.010Z,99061.73
2019-04-23T05:52:17.811Z,99049.70
2019-04-23T05:54:30.046Z,99051.48
2019-04-23T05:56:55.138Z,99059.48
2019-04-23T05:59:46.861Z,99058.22
2019-04-23T06:02:26.198Z,99054.72
2019-04-23T06:04:42.266Z,99056.78
2019-04-23T06:07:28.995Z,99053.81
2019-04-23T06:10:02.929Z,99058.22
2019-04-23T06:12:34.832Z,99045.88
2019-04-23T06:18:02.068Z,99045.31
2019-04-23T06:20:28.781Z,99047.75
2019-04-23T06:22:56.292Z,99046.08
2019-04-23T06:28:09.754Z,99035.11
2019-04-23T06:30:53.030Z,99045.16
2019-04-23T06:33:23.935Z,99036.97
2019-04-23T06:35:50.485Z,99041.95
2019-04-23T06:38:40.790Z,99038.55
2019-04-23T06:41:13.195Z,99041.50
2019-04-23T06:43:56.428Z,99042.66
2019-04-23T06:46:28.256Z,99044.13
2019-04-23T06:49:02.044Z,99038.56
2019-04-23T06:51:47.541Z,99028.62
2019-04-23T06:54:12.286Z,99033.97
2019-04-23T06:56:52.981Z,99026.31
2019-04-23T07:04:34.563Z,99026.84
2019-04-23T07:09:41.846Z,99002.77
2019-04-23T07:12:25.819Z,99013.14
2019-04-23T07:14:59.610Z,99013.45
2019-04-23T07:17:24.867Z,99004.89
2019-04-23T07:20:04.893Z,99003.64
2019-04-23T07:22:41.321Z,98995.52
2019-04-23T07:25:17.537Z,99004.36
2019-04-23T07:27:51.130Z,98996.56
2019-04-23T07:30:29.726Z,98999.09
2019-04-23T07:33:05.614Z,99000.73
2019-04-23T07:35:47.918Z,98998.55
2019-04-23T07:38:48.136Z,98991.19
2019-04-23T07:41:37.822Z,98989.38
2019-04-23T07:44:24.866Z,98975.09
2019-04-23T07:47:19.435Z,98975.09
2019-04-23T07:49:50.518Z,98989.29
2019-04-23T07:54:54.379Z,98985.47
2019-04-23T07:57:26.858Z,98982.05
2019-04-23T08:00:15.866Z,98984.80
2019-04-23T08:02:34.567Z,98981.79
2019-04-23T08:05:22.464Z,98979.41
2019-04-23T08:07:53.019Z,98978.95
2019-04-23T08:10:34.347Z,98976.02
2019-04-23T08:12:58.492Z,98973.27
2019-04-23T08:15:34.692Z,98973.05
2019-04-23T08:18:16.107Z,98974.26
2019-04-23T08:20:49.043Z,98973.27
2019-04-23T08:23:34.880Z,98968.86
2019-04-23T08:26:26.727Z,98970.49
2019-04-23T08:29:12.292Z,98969.41
2019-04-23T08:31:32.061Z,98959.95
2019-04-23T08:34:19.814Z,98967.77
2019-04-23T08:36:44.383Z,98960.33
2019-04-23T08:39:32.324Z,98953.42
2019-04-23T08:44:39.534Z,98962.83
2019-04-23T08:47:15.828Z,98963.26
2019-04-23T08:49:40.403Z,98961.88
2019-04-23T08:54:58.055Z,98964.77
2019-04-23T08:59:59.277Z,98957.52
2019-04-23T09:02:55.133Z,98952.75
2019-04-23T09:05:14.742Z,98951.03
2019-04-23T09:07:56.704Z,98951.70
2019-04-23T09:10:29.977Z,98947.30
2019-04-23T09:13:10.802Z,98949.69
2019-04-23T09:15:42.414Z,98949.69
2019-04-23T09:18:13.073Z,98946.88
2019-04-23T09:20:37.181Z,98947.47
2019-04-23T09:23:18.566Z,98946.30
2019-04-23T09:25:55.942Z,98945.11
2019-04-23T09:31:17.312Z,98939.92
2019-04-23T09:33:52.141Z,98945.23
2019-04-23T09:36:27.852Z,98942.66
2019-04-23T09:41:52.605Z,98934.02
2019-04-23T09:44:56.616Z,98935.13
2019-04-23T09:47:26.347Z,98944.02
2019-04-23T09:50:08.701Z,98942.97
2019-04-23T09:52:46.124Z,98934.58
2019-04-23T09:55:22.121Z,98941.52
2019-04-23T09:57:55.571Z,98941.95
2019-04-23T10:00:34.612Z,98941.16
2019-04-23T10:02:47.341Z,98946.77
2019-04-23T10:05:22.076Z,98942.17
2019-04-23T10:07:56.276Z,98936.66
2019-04-23T10:10:20.579Z,98944.15
2019-04-23T10:12:55.636Z,98942.86
2019-04-23T10:15:34.968Z,98939.25
2019-04-23T10:18:04.728Z,98937.25
2019-04-23T10:20:38.634Z,98926.92
2019-04-23T10:23:12.578Z,98936.91
2019-04-23T10:25:47.868Z,98939.65
2019-04-23T10:28:29.643Z,98933.32
2019-04-23T10:31:04.773Z,98935.31
2019-04-23T10:33:39.864Z,98935.16
2019-04-23T10:36:17.887Z,98935.57
2019-04-23T10:38:59.501Z,98921.84
2019-04-23T10:41:25.788Z,98919.21
2019-04-23T10:44:04.971Z,98919.66
2019-04-23T10:47:12.157Z,98917.14
2019-04-23T10:50:13.953Z,98921.39
2019-04-23T10:52:30.495Z,98919.92
2019-04-23T10:55:28.191Z,98931.36
2019-04-23T11:00:59.570Z,98921.75
2019-04-23T11:06:30.793Z,98925.86
2019-04-23T11:09:16.084Z,98930.06
2019-04-23T11:11:48.312Z,98927.41
2019-04-23T11:14:23.151Z,98928.27
2019-04-23T11:16:56.566Z,98929.60
2019-04-23T11:19:39.928Z,98925.23
2019-04-23T11:22:24.912Z,98930.80
2019-04-23T11:24:42.097Z,98932.15
2019-04-23T11:27:14.748Z,98930.45
2019-04-23T11:29:50.504Z,98935.53
2019-04-23T11:35:15.798Z,98930.20
2019-04-23T11:37:54.674Z,98925.61
2019-04-23T11:40:15.564Z,98930.45
2019-04-23T11:42:52.901Z,98933.57
2019-04-23T11:51:05.753Z,98922.39
2019-04-23T11:55:49.411Z,98927.90
2019-04-23T12:03:56.483Z,98918.84
2019-04-23T12:06:33.247Z,98918.84
2019-04-23T12:09:31.438Z,98914.47
2019-04-23T12:17:20.314Z,98919.14
2019-04-23T12:27:31.698Z,98915.49
2019-04-23T12:35:17.751Z,98913.03
2019-04-23T12:38:15.486Z,98913.28
2019-04-23T12:40:43.189Z,98915.57
2019-04-23T12:45:47.001Z,98913.30
2019-04-23T12:48:42.109Z,98909.97
2019-04-23T12:50:58.340Z,98914.00
2019-04-23T12:53:45.618Z,98904.48
2019-04-23T12:56:21.994Z,98902.95
2019-04-23T12:58:45.255Z,98901.67
2019-04-23T13:01:36.007Z,98896.93
2019-04-23T13:04:00.139Z,98888.37
2019-04-23T13:06:39.282Z,98889.49
2019-04-23T13:09:21.797Z,98884.92
2019-04-23T13:11:49.642Z,98889.98
2019-04-23T13:14:25.204Z,98891.61
2019-04-23T13:17:12.610Z,98888.30
2019-04-23T13:24:48.759Z,98888.80
2019-04-23T13:27:50.235Z,98882.27
2019-04-23T13:32:52.212Z,98884.45
2019-04-23T13:35:38.589Z,98877.27
2019-04-23T13:40:59.677Z,98872.77
2019-04-23T13:43:28.235Z,98868.64
2019-04-23T13:48:18.360Z,98866.75
2019-04-23T13:51:00.267Z,98864.93
2019-04-23T13:53:42.683Z,98864.35
2019-04-23T13:56:11.304Z,98864.11
2019-04-23T13:58:44.406Z,98853.73
2019-04-23T14:04:16.205Z,98858.88
2019-04-23T14:06:36.182Z,98862.54
2019-04-23T14:11:40.462Z,98849.58
2019-04-23T14:14:25.249Z,98852.40
2019-04-23T14:17:18.706Z,98858.39
2019-04-23T14:19:23.314Z,98850.30
2019-04-23T14:22:29.926Z,98849.80
2019-04-23T14:27:24.472Z,98849.63
2019-04-23T14:29:55.934Z,98850.20
2019-04-23T14:32:30.868Z,98855.73
2019-04-23T14:35:10.800Z,98852.64
2019-04-23T14:37:57.800Z,98847.70
2019-04-23T14:40:29.799Z,98848.70
2019-04-23T14:43:04.284Z,98847.83
2019-04-23T14:45:44.588Z,98849.59
2019-04-23T14:48:08.946Z,98849.47
2019-04-23T14:50:41.265Z,98847.70
2019-04-23T14:53:18.352Z,98853.75
2019-04-23T15:03:55.708Z,98855.52
2019-04-23T15:06:31.569Z,98855.16
2019-04-23T15:09:10.816Z,98846.48
2019-04-23T15:11:40.935Z,98840.36
2019-04-23T15:14:11.891Z,98839.30
2019-04-23T15:16:46.058Z,98834.22
2019-04-23T15:29:33.722Z,98835.22
2019-04-23T15:32:31.630Z,98831.69
2019-04-23T15:35:05.238Z,98833.71
2019-04-23T15:38:14.198Z,98831.47
2019-04-23T15:40:11.147Z,98830.62
2019-04-23T15:42:51.393Z,98831.24
2019-04-23T15:45:15.037Z,98831.05
2019-04-23T15:47:56.510Z,98821.38
2019-04-23T15:50:43.523Z,98824.64
2019-04-23T15:53:11.266Z,98818.59
2019-04-23T15:55:44.223Z,98821.34
2019-04-23T15:58:30.005Z,98822.61
2019-04-23T16:01:21.157Z,98816.83
2019-04-23T16:03:24.459Z,98818.97
2019-04-23T16:05:59.252Z,98819.30
2019-04-23T16:14:22.745Z,98822.33
2019-04-23T16:16:55.100Z,98821.83
2019-04-23T16:19:43.969Z,98821.98
2019-04-23T16:22:03.707Z,98821.71
2019-04-23T16:24:43.270Z,98819.49
2019-04-23T16:27:11.027Z,98821.01
2019-04-23T16:30:07.069Z,98826.69
2019-04-23T16:32:52.356Z,98818.94
2019-04-23T16:38:10.556Z,98825.35
2019-04-23T16:40:37.501Z,98828.06
2019-04-23T16:43:08.699Z,98816.82
2019-04-23T16:45:49.338Z,98818.30
2019-04-23T16:48:35.288Z,98818.67
2019-04-23T16:53:25.166Z,98814.38
2019-04-23T16:56:13.407Z,98814.73
2019-04-23T16:58:42.528Z,98813.19
2019-04-23T17:04:09.862Z,98806.66
2019-04-23T17:06:26.788Z,98810.66
2019-04-23T17:08:57.763Z,98811.44
2019-04-23T17:11:34.369Z,98806.31
2019-04-23T17:14:13.465Z,98810.24
2019-04-23T17:19:22.409Z,98813.17
2019-04-23T17:22:00.013Z,98813.80
2019-04-23T17:27:18.114Z,98812.72
2019-04-23T17:29:44.158Z,98812.11
2019-04-23T17:32:23.659Z,98812.98
2019-04-23T17:35:11.654Z,98816.22
2019-04-23T17:37:51.953Z,98816.11
2019-04-23T17:43:01.740Z,98809.69
2019-04-23T17:48:17.257Z,98812.58
2019-04-23T17:50:56.721Z,98820.77
2019-04-23T17:53:31.908Z,98815.73
2019-04-23T17:56:20.172Z,98819.03
2019-04-23T18:09:09.830Z,98823.84
2019-04-23T18:11:52.620Z,98827.98
2019-04-23T18:14:07.156Z,98824.02
2019-04-23T18:19:16.856Z,98829.61
2019-04-23T18:25:03.890Z,98834.77
2019-04-23T18:27:40.608Z,98835.13
2019-04-23T18:46:02.401Z,98844.61
2019-04-23T18:48:44.203Z,98850.05
2019-04-23T18:51:12.423Z,98845.11
2019-04-23T18:59:00.905Z,98857.39
2019-04-23T19:01:45.129Z,98854.47
2019-04-23T19:04:19.776Z,98857.52
2019-04-23T19:06:37.719Z,98865.79
2019-04-23T19:12:19.736Z,98872.82
2019-04-23T19:14:53.915Z,98861.67
2019-04-23T19:17:48.273Z,98861.67
2019-04-23T19:19:58.206Z,98877.58
2019-04-23T19:22:28.089Z,98875.27
2019-04-23T19:25:02.052Z,98877.59
2019-04-23T19:27:40.469Z,98883.40
2019-04-23T19:30:28.083Z,98879.02
2019-04-23T19:32:54.295Z,98877.33
2019-04-23T19:35:53.790Z,98884.81
2019-04-23T19:43:19.926Z,98894.52
2019-04-23T19:46:03.945Z,98893.63
2019-04-23T19:48:42.478Z,98894.23
2019-04-23T19:53:54.987Z,98900.08
2019-04-23T19:56:20.200Z,98894.11
2019-04-23T19:58:51.665Z,98905.58
2019-04-23T20:01:29.667Z,98900.23
2019-04-23T20:07:00.125Z,98899.58
2019-04-23T20:14:26.136Z,98894.12
2019-04-23T20:17:17.646Z,98904.95
2019-04-23T20:19:37.379Z,98905.09
2019-04-23T20:24:57.639Z,98906.95
2019-04-23T20:27:23.474Z,98909.77
2019-04-23T20:30:32.473Z,98910.77
2019-04-23T20:35:30.763Z,98896.41
2019-04-23T20:40:49.173Z,98897.42
2019-04-23T20:43:32.438Z,98898.36
2019-04-23T20:45:54.596Z,98896.64
2019-04-23T20:48:27.344Z,98900.52
2019-04-23T20:50:56.264Z,98897.38
2019-04-23T20:53:42.968Z,98896.02
2019-04-23T20:56:17.636Z,98895.87
2019-04-23T20:58:55.627Z,98900.31
2019-04-23T21:01:43.465Z,98903.02
2019-04-23T21:04:35.229Z,98902.91
2019-04-23T21:06:48.733Z,98910.96
2019-04-23T21:09:33.419Z,98907.06
2019-04-23T21:12:07.891Z,98908.39
2019-04-23T21:14:48.754Z,98911.33
2019-04-23T21:17:04.138Z,98911.06
2019-04-23T21:19:52.588Z,98907.46
2019-04-23T21:22:31.052Z,98908.78
2019-04-23T21:24:51.482Z,98913.71
2019-04-23T21:30:03.541Z,98905.02
2019-04-23T21:32:51.457Z,98905.59
2019-04-23T21:35:42.559Z,98910.80
2019-04-23T21:38:00.420Z,98909.27
2019-04-23T21:40:56.871Z,98916.82
2019-04-23T21:43:10.654Z,98912.09
2019-04-23T21:46:06.007Z,98920.31
2019-04-23T21:48:33.889Z,98922.02
2019-04-23T21:50:58.041Z,98929.02
2019-04-23T21:53:34.625Z,98927.69
2019-04-23T21:56:08.619Z,98928.82
2019-04-23T22:01:27.820Z,98927.86
2019-04-23T22:04:08.750Z,98927.12
2019-04-23T22:06:37.193Z,98917.84
2019-04-23T22:09:15.963Z,98923.54
2019-04-23T22:17:01.581Z,98924.19
2019-04-23T22:19:19.918Z,98926.44
2019-04-23T22:21:59.145Z,98930.61
2019-04-23T22:24:39.842Z,98926.83
2019-04-23T22:27:10.161Z,98928.64
2019-04-23T22:29:43.565Z,98924.08
2019-04-23T22:32:20.111Z,98920.70
2019-04-23T22:35:06.393Z,98920.05
2019-04-23T22:37:32.409Z,98922.54
2019-04-23T22:40:04.658Z,98930.62
2019-04-23T22:43:01.250Z,98927.27
2019-04-23T22:47:58.468Z,98929.44
2019-04-23T22:50:29.552Z,98926.80
2019-04-23T22:55:51.633Z,98922.46
2019-04-23T22:58:09.676Z,98923.95
2019-04-23T23:01:10.670Z,98923.20
2019-04-23T23:03:33.735Z,98925.92
2019-04-23T23:06:24.801Z,98916.86
2019-04-23T23:09:02.589Z,98921.34
2019-04-23T23:11:14.974Z,98917.57
2019-04-23T23:14:09.657Z,98921.75
2019-04-23T23:16:30.338Z,98927.06
2019-04-23T23:19:14.797Z,98926.56
2019-04-23T23:21:56.650Z,98925.08
2019-04-23T23:29:27.702Z,98936.34
2019-04-23T23:32:09.622Z,98931.98
2019-04-23T23:34:57.568Z,98940.05
2019-04-23T23:37:12.040Z,98936.16
2019-04-23T23:40:00.022Z,98936.55
2019-04-23T23:42:22.030Z,98936.27
2019-04-23T23:45:15.480Z,98939.66
2019-04-23T23:47:38.119Z,98944.92
2019-04-23T23:50:19.596Z,98942.39
2019-04-23T23:55:19.575Z,98936.34
2019-04-23T23:58:07.340Z,98938.93
